Lambert, Arkansas
Current Conditions -  °F | °C
As of 2:53 PM on Friday 31 Oct 2014 (Local Time) from KHOT Reporting Station
Few Clouds Few Clouds  
Wind Chill: 63°   Ceiling: Unl
Heat Index: 63°   Visibility: 10mi
Dew Point: 39°   Wind: 10mph
Humidity: 41%   Direction: 350°N
Pressure: 30.21"   Gusts: 18mph
Location:  34.3335°N, 93.1952°W
Report Text: KHOT 311953Z AUTO 35009G16KT 310V040 10SM FEW050 17/04 A3021 RMK AO2 SLP229 T01720039
Loading
Personal Weather Stations






























Interactive Weather Map
Tropical Storm Tracking
New forecast layout! Learn more

10-Day Weather Forecast

Advertisements
Track Severe Weather on mobile